BIRK

Reykjavik Airport

Reykjavik, Iceland
METAR BIRK 220600Z 14004KT 110V190 9999 FEW026 02/M01 Q1003
Observed Flight Rules
Apr-22 @ 06:00 UTC (56 minutes ago) Visual Flight Rules
Wind Visibility Clouds
140° at 4 knots 10,000+ meters
  • Few at 2,600' AGL
Temperatures Readings
Current 2°C / 36°F
Dewpoint -1°C / 30°F
Humidity 81%
Altimeter 29.62" Hg
Pressure 1003 hPa
Elevation 61
METAR BIRK 220600Z 14004KT 110V190 9999 FEW026 02/M01 Q1003
Observed Flight Rules
Apr-22 @ 06:00 UTC
(56 minutes ago)
VFR
Wind Visibility
140° at 4 knots 10,000+ meters
Clouds
  • Few at 2,600' AGL
Temperature Dewpoint
2°C / 36°F -1°C / 30°F
Humidity Altimeter Pressure
81% 29.62" Hg 1003 hPa